Time;durP1;ratioP1;P1;durP2;ratioP2;P2;SDS_P1;SDS_P2;PMS_P1;PMS_P2;Temp;Humidity;BMP_temperature;BMP_pressure;BME280_temperature;BME280_humidity;BME280_pressure;Samples;Min_cycle;Max_cycle;Signal;HPM_P1;HPM_P2
2023/05/15 00:01:01;;;;;;;89.20;21.13;;;20.40;70.80;;;;;;3957680;29;20058;-49
2023/05/15 00:03:42;;;;;;;23.65;19.80;;;20.40;70.40;;;;;;3964795;29;20074;-51
2023/05/15 00:06:23;;;;;;;;;;;20.40;70.50;;;;;;3973082;29;20506;-51
2023/05/15 00:09:04;;;;;;;32.40;17.75;;;20.30;70.80;;;;;;3972321;29;19940;-55
2023/05/15 00:11:44;;;;;;;49.13;19.05;;;20.30;71.50;;;;;;3971963;29;20061;-47
2023/05/15 00:14:26;;;;;;;38.67;19.00;;;20.30;71.20;;;;;;3972518;29;20411;-54
2023/05/15 00:17:08;;;;;;;41.70;20.17;;;20.30;71.10;;;;;;3972385;29;20061;-55
2023/05/15 00:19:49;;;;;;;39.60;19.73;;;20.30;70.60;;;;;;3972035;29;20188;-48
2023/05/15 00:22:30;;;;;;;39.72;20.17;;;20.30;70.50;;;;;;3971896;29;20065;-50
2023/05/15 00:25:11;;;;;;;40.25;20.17;;;20.30;70.90;;;;;;3971820;29;20067;-53
2023/05/15 00:27:52;;;;;;;31.63;19.75;;;20.30;71.20;;;;;;3972054;29;20057;-51
2023/05/15 00:30:34;;;;;;;31.73;19.48;;;20.30;71.40;;;;;;3960759;29;20179;-48
2023/05/15 00:33:16;;;;;;;37.93;19.53;;;20.20;71.40;;;;;;3970209;29;20075;-50
2023/05/15 00:35:57;;;;;;;23.70;19.48;;;20.20;71.10;;;;;;3971659;29;20358;-49
2023/05/15 00:38:38;;;;;;;28.10;20.63;;;20.20;71.10;;;;;;3971156;29;20066;-51
2023/05/15 00:41:20;;;;;;;31.63;20.10;;;20.20;71.20;;;;;;3971731;29;20645;-48
2023/05/15 00:44:02;;;;;;;47.60;20.95;;;20.30;71.40;;;;;;3972125;29;20070;-56
2023/05/15 00:46:46;;;;;;;26.35;20.17;;;20.20;71.00;;;;;;3972098;29;20138;-56
2023/05/15 00:49:29;;;;;;;43.40;21.27;;;20.20;71.20;;;;;;3960608;29;20098;-55
2023/05/15 00:52:11;;;;;;;36.65;20.98;;;20.20;71.40;;;;;;3971792;29;20066;-51
2023/05/15 00:54:52;;;;;;;51.38;21.58;;;20.20;71.50;;;;;;3960626;29;20065;-55
2023/05/15 00:57:34;;;;;;;31.60;21.10;;;20.20;71.30;;;;;;3971276;29;20057;-55
2023/05/15 01:00:17;;;;;;;43.72;21.00;;;20.20;71.50;;;;;;3971767;29;20070;-50
2023/05/15 01:02:59;;;;;;;31.25;22.52;;;20.20;71.40;;;;;;3960755;29;20453;-55
2023/05/15 01:05:41;;;;;;;33.50;22.55;;;20.20;71.30;;;;;;3971734;29;20061;-51
2023/05/15 01:08:33;;;;;;;33.38;24.00;;;20.10;71.40;;;;;;3970988;29;20057;-53
2023/05/15 01:11:15;;;;;;;38.63;23.50;;;20.10;71.30;;;;;;3971524;29;20510;-53
2023/05/15 01:13:59;;;;;;;34.97;23.08;;;20.10;71.70;;;;;;3970784;29;20058;-52
2023/05/15 01:16:40;;;;;;;36.42;24.75;;;20.10;71.70;;;;;;3960217;29;20147;-52
2023/05/15 01:19:21;;;;;;;40.05;23.98;;;20.10;71.10;;;;;;3971341;29;20120;-54
2023/05/15 01:22:37;;;;;;;32.97;22.92;;;20.10;71.10;;;;;;3971320;29;20053;-53
2023/05/15 01:25:44;;;;;;;31.55;23.63;;;20.10;70.50;;;;;;3941506;29;20074;-55
2023/05/15 01:28:31;;;;;;;30.75;24.15;;;20.00;70.80;;;;;;3961383;29;20061;-54
2023/05/15 01:31:16;;;;;;;29.52;23.02;;;20.10;71.60;;;;;;3971303;29;20098;-55
2023/05/15 01:34:02;;;;;;;36.03;25.77;;;20.10;71.60;;;;;;3960116;29;20499;-54
2023/05/15 01:36:51;;;;;;;34.75;24.10;;;20.00;72.40;;;;;;3949368;29;20900;-51
2023/05/15 01:39:35;;;;;;;32.42;25.17;;;20.00;71.50;;;;;;3970604;29;20111;-56
2023/05/15 01:42:19;;;;;;;32.45;25.60;;;20.00;71.70;;;;;;3968143;29;20069;-51
2023/05/15 01:45:06;;;;;;;34.70;25.52;;;20.00;72.60;;;;;;3959710;29;20118;-54
2023/05/15 01:47:48;;;;;;;35.65;26.88;;;20.00;71.80;;;;;;3970673;29;20077;-56
2023/05/15 01:50:32;;;;;;;34.78;26.40;;;20.00;72.00;;;;;;3961160;29;20191;-56
2023/05/15 01:53:15;;;;;;;36.05;28.35;;;20.00;71.50;;;;;;3970620;29;20058;-54
2023/05/15 01:55:57;;;;;;;37.50;28.73;;;20.00;71.80;;;;;;3970838;29;20074;-56
2023/05/15 01:58:40;;;;;;;34.38;27.63;;;20.00;72.10;;;;;;3959692;29;20411;-53
2023/05/15 02:01:23;;;;;;;37.22;27.48;;;19.90;72.10;;;;;;3971061;29;20109;-56
2023/05/15 02:04:05;;;;;;;36.17;27.50;;;20.00;72.00;;;;;;3971122;29;20138;-56
2023/05/15 02:06:49;;;;;;;36.95;27.77;;;19.90;71.90;;;;;;3959633;29;20403;-56
2023/05/15 02:09:30;;;;;;;37.47;27.80;;;19.90;71.50;;;;;;3971060;29;20135;-57
2023/05/15 02:12:13;;;;;;;34.22;25.52;;;19.90;72.40;;;;;;3949457;29;20066;-56
2023/05/15 02:14:57;;;;;;;36.65;26.52;;;19.90;71.70;;;;;;3957235;29;20107;-58
2023/05/15 02:17:40;;;;;;;31.05;24.58;;;19.90;71.80;;;;;;3970146;29;20062;-54
2023/05/15 02:20:21;;;;;;;32.83;24.88;;;19.90;71.90;;;;;;3970691;29;20113;-58
2023/05/15 02:23:01;;;;;;;46.80;23.48;;;19.90;72.10;;;;;;3970697;29;20183;-56
2023/05/15 02:25:49;;;;;;;32.88;23.15;;;19.90;71.90;;;;;;3955710;29;20588;-56
2023/05/15 02:28:38;;;;;;;38.60;24.90;;;19.90;71.80;;;;;;3957137;29;20152;-56
2023/05/15 02:31:26;;;;;;;64.25;22.23;;;19.90;71.70;;;;;;3959819;29;20457;-55
2023/05/15 02:34:17;;;;;;;32.08;20.90;;;19.80;71.40;;;;;;3959124;29;20055;-56
2023/05/15 02:37:00;;;;;;;46.10;20.52;;;19.90;72.40;;;;;;3970337;29;20057;-52
2023/05/15 02:39:44;;;;;;;32.42;20.92;;;19.80;72.70;;;;;;3970881;29;20435;-55
2023/05/15 02:42:28;;;;;;;38.55;20.02;;;19.90;71.80;;;;;;3970659;29;20058;-54
2023/05/15 02:45:10;;;;;;;32.85;21.20;;;19.90;71.90;;;;;;3955214;29;20526;-57
2023/05/15 02:47:52;;;;;;;35.97;20.27;;;19.80;72.10;;;;;;3955633;29;20136;-57
2023/05/15 02:50:34;;;;;;;56.85;19.70;;;19.80;72.20;;;;;;3954511;29;20151;-55
2023/05/15 02:53:15;;;;;;;52.60;20.02;;;19.80;71.50;;;;;;3958732;29;20097;-57
2023/05/15 02:55:56;;;;;;;45.78;19.88;;;19.80;71.50;;;;;;3959442;29;20057;-56
2023/05/15 02:58:37;;;;;;;28.33;20.27;;;19.80;71.70;;;;;;3959761;29;20061;-56
2023/05/15 03:01:18;;;;;;;40.35;21.17;;;19.80;72.00;;;;;;3959119;29;20126;-55
2023/05/15 03:03:59;;;;;;;52.67;22.80;;;19.80;72.00;;;;;;3959511;29;20518;-56
2023/05/15 03:06:42;;;;;;;52.55;20.88;;;19.80;72.20;;;;;;3947270;30;20078;-55
2023/05/15 03:09:24;;;;;;;69.80;22.05;;;19.80;72.10;;;;;;3957804;29;20054;-53
2023/05/15 03:12:05;;;;;;;35.72;20.33;;;19.70;71.90;;;;;;3954485;29;20085;-57
2023/05/15 03:14:46;;;;;;;;;;;19.80;72.10;;;;;;3973245;29;20065;-56
2023/05/15 03:17:27;;;;;;;36.55;22.60;;;19.70;72.20;;;;;;3971240;29;19940;-56
2023/05/15 03:20:10;;;;;;;45.45;22.67;;;19.70;72.80;;;;;;3972467;29;20841;-53
2023/05/15 03:22:52;;;;;;;55.20;23.48;;;19.80;72.60;;;;;;3960982;29;20138;-57
2023/05/15 03:25:33;;;;;;;59.35;22.85;;;19.70;72.20;;;;;;3961902;29;20062;-55
2023/05/15 03:28:14;;;;;;;41.80;24.35;;;19.70;71.60;;;;;;3963808;29;20115;-54
2023/05/15 03:30:55;;;;;;;45.38;25.05;;;19.70;71.80;;;;;;3972698;29;20518;-54
2023/05/15 03:33:37;;;;;;;36.30;24.95;;;19.70;72.00;;;;;;3972890;29;20751;-54
2023/05/15 03:36:18;;;;;;;57.17;23.70;;;19.70;72.10;;;;;;3972137;29;20061;-56
2023/05/15 03:39:00;;;;;;;47.15;22.45;;;19.70;72.40;;;;;;3973163;29;20435;-56
2023/05/15 03:41:40;;;;;;;54.92;24.38;;;19.70;72.40;;;;;;3958230;29;20140;-56
2023/05/15 03:44:21;;;;;;;47.17;23.65;;;19.70;72.10;;;;;;3957551;29;20197;-53
2023/05/15 03:47:02;;;;;;;41.35;22.02;;;19.70;72.80;;;;;;3956886;29;20411;-57
2023/05/15 03:49:43;;;;;;;30.30;23.65;;;19.60;72.10;;;;;;3960647;29;20448;-55
2023/05/15 03:52:24;;;;;;;32.17;25.33;;;19.70;72.20;;;;;;3960803;29;20514;-54
2023/05/15 03:55:07;;;;;;;;;;;19.60;72.30;;;;;;3972760;29;20062;-56
2023/05/15 03:57:49;;;;;;;33.55;25.05;;;19.60;72.30;;;;;;3971194;29;19932;-56
2023/05/15 04:00:30;;;;;;;30.65;22.30;;;19.60;72.70;;;;;;3971846;29;20054;-55
2023/05/15 04:03:11;;;;;;;27.27;21.35;;;19.60;72.40;;;;;;3972072;29;20053;-55
2023/05/15 04:05:52;;;;;;;27.58;19.98;;;19.60;72.20;;;;;;3971951;29;20512;-49
2023/05/15 04:08:33;;;;;;;24.77;19.77;;;19.50;71.00;;;;;;3961014;29;20062;-46
2023/05/15 04:11:15;;;;;;;24.20;19.00;;;19.50;71.40;;;;;;3972013;29;20543;-52
2023/05/15 04:13:56;;;;;;;24.60;18.10;;;19.50;72.30;;;;;;3960708;29;20388;-46
2023/05/15 04:16:37;;;;;;;22.60;17.08;;;19.50;71.50;;;;;;3971626;29;20513;-49
2023/05/15 04:19:18;;;;;;;21.90;16.73;;;19.50;71.40;;;;;;3972037;29;20062;-47
2023/05/15 04:21:59;;;;;;;19.50;16.55;;;19.50;71.20;;;;;;3960932;29;20126;-50
2023/05/15 04:24:40;;;;;;;22.15;17.02;;;19.50;71.60;;;;;;3957158;29;20543;-49
2023/05/15 04:27:22;;;;;;;23.35;17.70;;;19.50;72.00;;;;;;3955594;29;20069;-49
2023/05/15 04:30:04;;;;;;;22.40;18.60;;;19.50;72.10;;;;;;3957008;29;20055;-49
2023/05/15 04:32:45;;;;;;;24.95;18.83;;;19.50;72.00;;;;;;3957230;29;20058;-48
2023/05/15 04:35:26;;;;;;;25.63;18.23;;;19.50;72.00;;;;;;3956956;29;20099;-49
2023/05/15 04:38:07;;;;;;;24.02;18.55;;;19.50;71.20;;;;;;3945680;29;20054;-49
2023/05/15 04:40:48;;;;;;;20.63;17.85;;;19.50;70.80;;;;;;3971527;29;20058;-48
2023/05/15 04:43:30;;;;;;;21.67;17.90;;;19.40;71.20;;;;;;3971540;29;20081;-48
2023/05/15 04:46:11;;;;;;;21.42;18.45;;;19.40;71.30;;;;;;3971893;29;20061;-51
2023/05/15 04:48:52;;;;;;;24.17;18.63;;;19.40;71.20;;;;;;3960457;29;20131;-51
2023/05/15 04:51:33;;;;;;;21.75;18.52;;;19.40;70.90;;;;;;3971708;29;20118;-50
2023/05/15 04:54:13;;;;;;;20.23;17.73;;;19.40;70.90;;;;;;3971542;29;20534;-50
2023/05/15 04:56:54;;;;;;;19.52;17.02;;;19.40;71.10;;;;;;3971702;29;20131;-48
2023/05/15 04:59:37;;;;;;;19.55;17.00;;;19.40;71.20;;;;;;3971720;29;20057;-49
2023/05/15 05:02:21;;;;;;;20.60;17.33;;;19.40;71.40;;;;;;3971315;29;20419;-48
2023/05/15 05:05:02;;;;;;;17.38;15.60;;;19.40;71.20;;;;;;3971156;29;20058;-48
2023/05/15 05:07:45;;;;;;;17.15;15.48;;;19.40;71.80;;;;;;3971005;29;20062;-47
2023/05/15 05:10:25;;;;;;;16.67;14.95;;;19.40;72.10;;;;;;3971361;29;20057;-53
2023/05/15 05:13:06;;;;;;;17.05;15.02;;;19.40;72.10;;;;;;3971619;29;20118;-49
2023/05/15 05:15:49;;;;;;;16.08;14.38;;;19.40;71.80;;;;;;3971591;29;20054;-52
2023/05/15 05:18:30;;;;;;;15.45;14.02;;;19.40;71.60;;;;;;3967663;29;20498;-50
2023/05/15 05:21:11;;;;;;;16.30;14.60;;;19.40;71.50;;;;;;3982122;29;20143;-52
2023/05/15 05:23:52;;;;;;;16.33;14.60;;;19.40;71.50;;;;;;3981121;29;20140;-51
2023/05/15 05:26:33;;;;;;;17.75;13.88;;;19.40;71.60;;;;;;3971581;29;20449;-50
2023/05/15 05:29:15;;;;;;;15.80;14.30;;;19.40;71.80;;;;;;3971052;29;20062;-53
2023/05/15 05:31:57;;;;;;;15.70;14.20;;;19.40;71.80;;;;;;3960110;29;20080;-53
2023/05/15 05:34:38;;;;;;;17.30;15.65;;;19.40;70.90;;;;;;3971022;29;20111;-54
2023/05/15 05:37:19;;;;;;;14.80;13.25;;;19.40;70.70;;;;;;3970463;29;20058;-54
2023/05/15 05:40:00;;;;;;;16.25;14.55;;;19.40;70.60;;;;;;3960167;29;20076;-49
2023/05/15 05:42:41;;;;;;;16.38;14.55;;;19.30;71.20;;;;;;3960099;29;20063;-48
2023/05/15 05:45:22;;;;;;;;;;;19.30;71.70;;;;;;3965282;29;20071;-54
2023/05/15 05:48:06;;;;;;;16.95;15.13;;;19.40;71.80;;;;;;3970819;29;19932;-53
2023/05/15 05:50:46;;;;;;;16.67;14.50;;;19.40;72.60;;;;;;3956598;29;20562;-51
2023/05/15 05:53:27;;;;;;;14.85;13.35;;;19.30;72.20;;;;;;3959757;29;20123;-53
2023/05/15 05:56:09;;;;;;;16.33;14.32;;;19.40;72.00;;;;;;3971360;29;20407;-51
2023/05/15 05:58:49;;;;;;;17.05;15.25;;;19.30;71.90;;;;;;3971031;29;20522;-53
2023/05/15 06:01:30;;;;;;;16.40;13.75;;;19.30;71.90;;;;;;3971341;29;20057;-53
2023/05/15 06:04:14;;;;;;;19.55;15.93;;;19.40;72.10;;;;;;3971281;29;20107;-52
2023/05/15 06:06:57;;;;;;;17.30;15.60;;;19.40;72.50;;;;;;3970690;29;20058;-51
2023/05/15 06:09:38;;;;;;;17.88;15.98;;;19.40;71.90;;;;;;3971023;29;20053;-51
2023/05/15 06:12:19;;;;;;;18.42;16.45;;;19.30;71.60;;;;;;3970663;29;20171;-53
2023/05/15 06:15:02;;;;;;;18.13;16.35;;;19.40;71.20;;;;;;3970080;29;20066;-54
2023/05/15 06:17:44;;;;;;;17.65;15.82;;;19.40;71.50;;;;;;3960150;29;20058;-52
2023/05/15 06:20:26;;;;;;;19.15;16.92;;;19.40;71.10;;;;;;3969770;29;20061;-53
2023/05/15 06:23:08;;;;;;;17.80;15.90;;;19.40;71.00;;;;;;3970741;29;20062;-53
2023/05/15 06:25:48;;;;;;;18.10;15.65;;;19.40;71.50;;;;;;3970481;29;20054;-53
2023/05/15 06:28:29;;;;;;;14.48;13.10;;;19.40;71.30;;;;;;3970714;29;20065;-54
2023/05/15 06:31:10;;;;;;;14.75;13.32;;;19.40;71.20;;;;;;3970270;29;20217;-52
2023/05/15 06:33:51;;;;;;;18.63;16.70;;;19.40;70.40;;;;;;3970794;29;20058;-50
2023/05/15 06:36:35;;;;;;;17.48;15.73;;;19.40;70.10;;;;;;3970527;29;20054;-48
2023/05/15 06:39:16;;;;;;;18.98;17.08;;;19.40;69.70;;;;;;3957812;29;20526;-54
2023/05/15 06:42:00;;;;;;;17.08;15.38;;;19.50;69.90;;;;;;3958591;29;20136;-52
2023/05/15 06:44:42;;;;;;;16.20;14.70;;;19.50;70.10;;;;;;3959510;29;20054;-48
2023/05/15 06:47:23;;;;;;;17.08;15.38;;;19.50;69.50;;;;;;3972720;29;20061;-48
2023/05/15 06:50:05;;;;;;;17.55;15.55;;;19.60;69.50;;;;;;3969833;29;20066;-52
2023/05/15 06:52:47;;;;;;;16.65;15.05;;;19.60;69.70;;;;;;3973305;29;20057;-48
2023/05/15 06:55:28;;;;;;;15.55;14.02;;;19.60;69.40;;;;;;3973726;29;20179;-49
2023/05/15 06:58:09;;;;;;;17.38;15.55;;;19.70;69.20;;;;;;3973135;29;20066;-48
2023/05/15 07:00:50;;;;;;;15.43;13.85;;;19.70;69.70;;;;;;3973352;29;20057;-48
2023/05/15 07:03:33;;;;;;;17.33;14.65;;;19.80;69.30;;;;;;3970855;29;20395;-53
2023/05/15 07:06:14;;;;;;;16.15;14.10;;;19.90;69.30;;;;;;3970841;29;20519;-49
2023/05/15 07:08:56;;;;;;;16.95;15.15;;;19.90;69.80;;;;;;3970362;29;20057;-48
2023/05/15 07:11:39;;;;;;;22.83;16.20;;;19.90;69.70;;;;;;3970312;29;20062;-51
2023/05/15 07:14:19;;;;;;;15.25;13.75;;;19.90;69.20;;;;;;3970082;29;20070;-53
2023/05/15 07:17:00;;;;;;;14.32;12.75;;;19.90;69.20;;;;;;3970573;29;20057;-51
2023/05/15 07:19:41;;;;;;;14.82;13.35;;;20.00;68.70;;;;;;3970821;29;20062;-48
2023/05/15 07:22:22;;;;;;;11.73;10.70;;;20.00;68.40;;;;;;3969144;29;20062;-50
2023/05/15 07:25:06;;;;;;;13.00;11.70;;;20.00;69.00;;;;;;3959285;29;20061;-53
2023/05/15 07:27:47;;;;;;;14.15;12.75;;;20.00;68.60;;;;;;3970074;29;20054;-53
2023/05/15 07:30:28;;;;;;;12.55;11.25;;;20.10;68.30;;;;;;3970417;29;20073;-50
2023/05/15 07:33:09;;;;;;;11.95;10.82;;;20.10;68.70;;;;;;3970267;29;20053;-53
2023/05/15 07:35:50;;;;;;;10.85;9.70;;;20.10;68.70;;;;;;3970451;29;20062;-50
2023/05/15 07:38:31;;;;;;;12.38;11.23;;;20.20;68.60;;;;;;3970369;29;20070;-50
2023/05/15 07:41:14;;;;;;;13.82;11.45;;;20.20;68.40;;;;;;3958093;29;20057;-53
2023/05/15 07:43:55;;;;;;;10.63;9.65;;;20.20;68.30;;;;;;3970595;29;20106;-52
2023/05/15 07:46:37;;;;;;;10.80;9.77;;;20.20;67.70;;;;;;3969524;29;20079;-54
2023/05/15 07:49:19;;;;;;;12.40;10.02;;;20.20;67.50;;;;;;3970404;29;20074;-53
2023/05/15 07:52:01;;;;;;;10.90;9.90;;;20.20;67.10;;;;;;3969056;29;20411;-50
2023/05/15 07:54:42;;;;;;;10.52;9.52;;;20.30;67.30;;;;;;3969797;29;20061;-47
2023/05/15 07:57:25;;;;;;;9.57;8.68;;;20.30;67.00;;;;;;3969811;29;20085;-52
2023/05/15 08:00:11;;;;;;;10.75;9.73;;;20.30;66.20;;;;;;3969871;29;20066;-52
2023/05/15 08:02:52;;;;;;;10.43;9.52;;;20.30;66.30;;;;;;3970104;29;20134;-48
2023/05/15 08:05:33;;;;;;;9.85;9.15;;;20.30;66.20;;;;;;3969776;29;20061;-51
2023/05/15 08:08:14;;;;;;;10.82;9.73;;;20.40;65.70;;;;;;3969849;29;20065;-49
2023/05/15 08:10:55;;;;;;;10.02;9.10;;;20.40;66.30;;;;;;3969910;29;20384;-51
2023/05/15 08:13:37;;;;;;;9.73;8.85;;;20.40;65.90;;;;;;3969393;29;20514;-53
2023/05/15 08:16:18;;;;;;;10.98;8.43;;;20.40;66.40;;;;;;3957496;29;20191;-53
2023/05/15 08:19:03;;;;;;;8.18;7.47;;;20.40;66.60;;;;;;3970013;29;20107;-50
2023/05/15 08:21:44;;;;;;;10.75;9.48;;;20.40;67.20;;;;;;3969437;29;20149;-48
2023/05/15 08:24:25;;;;;;;12.25;9.45;;;20.40;66.60;;;;;;3969388;29;20715;-52
2023/05/15 08:27:07;;;;;;;9.90;9.10;;;20.40;66.60;;;;;;3969481;29;20065;-55
2023/05/15 08:29:49;;;;;;;11.73;9.45;;;20.50;66.20;;;;;;3969041;29;20057;-53
2023/05/15 08:32:30;;;;;;;10.82;9.70;;;20.50;66.60;;;;;;3968734;29;20062;-52
2023/05/15 08:35:11;;;;;;;10.57;9.60;;;20.50;67.10;;;;;;3968990;29;20686;-53
2023/05/15 08:37:52;;;;;;;10.60;9.55;;;20.50;67.40;;;;;;3969417;29;20775;-50
2023/05/15 08:40:33;;;;;;;11.60;9.50;;;20.50;66.40;;;;;;3968460;29;20062;-49
2023/05/15 08:43:22;;;;;;;9.02;8.32;;;20.50;65.90;;;;;;3968606;29;20407;-51
2023/05/15 08:46:06;;;;;;;9.15;8.35;;;20.50;65.80;;;;;;3969212;29;20062;-49
2023/05/15 08:48:47;;;;;;;10.25;9.27;;;20.50;66.00;;;;;;3969064;29;20071;-51
2023/05/15 08:51:28;;;;;;;8.93;8.13;;;20.50;65.40;;;;;;3969071;29;20625;-51
2023/05/15 08:54:10;;;;;;;10.20;8.65;;;20.60;65.40;;;;;;3969017;29;20065;-48
2023/05/15 08:56:51;;;;;;;10.27;8.77;;;20.60;66.40;;;;;;3957627;29;20065;-52
2023/05/15 08:59:32;;;;;;;10.68;7.88;;;20.50;66.10;;;;;;3969043;29;20192;-49
2023/05/15 09:02:15;;;;;;;9.05;8.15;;;20.60;66.30;;;;;;3958141;29;20069;-50
2023/05/15 09:04:56;;;;;;;9.10;8.20;;;20.60;65.80;;;;;;3968563;29;20519;-51
2023/05/15 09:07:39;;;;;;;9.80;8.82;;;20.60;66.20;;;;;;3968154;29;20057;-52
2023/05/15 09:10:22;;;;;;;9.43;8.23;;;20.60;66.50;;;;;;3968886;29;20066;-52
2023/05/15 09:13:03;;;;;;;7.63;6.95;;;20.60;66.10;;;;;;3969271;29;20057;-49
2023/05/15 09:15:46;;;;;;;8.25;7.38;;;20.70;65.00;;;;;;3968957;29;20118;-51
2023/05/15 09:18:30;;;;;;;8.90;8.23;;;20.70;65.40;;;;;;3957024;29;20099;-53
2023/05/15 09:21:24;;;;;;;9.70;8.82;;;20.70;66.30;;;;;;3969022;29;20054;-50
2023/05/15 09:24:18;;;;;;;9.40;8.57;;;20.70;64.50;;;;;;3967901;29;20200;-50
2023/05/15 09:27:05;;;;;;;11.40;10.20;;;20.80;64.00;;;;;;3968540;29;20070;-51
2023/05/15 09:29:46;;;;;;;11.15;10.10;;;20.80;64.30;;;;;;3967249;29;20180;-52
2023/05/15 09:32:27;;;;;;;10.68;9.65;;;20.80;66.00;;;;;;3968969;29;20611;-52
2023/05/15 09:35:35;;;;;;;10.23;9.23;;;20.80;65.50;;;;;;3968097;29;20127;-51
2023/05/15 09:38:16;;;;;;;11.80;10.73;;;20.80;65.30;;;;;;3967590;29;20557;-53
2023/05/15 09:41:02;;;;;;;11.43;10.43;;;20.90;65.80;;;;;;3968019;29;20180;-50
2023/05/15 09:43:43;;;;;;;11.15;10.07;;;20.90;65.30;;;;;;3969088;29;20111;-54
2023/05/15 09:46:24;;;;;;;12.13;10.82;;;20.90;64.40;;;;;;3968612;29;20058;-51
2023/05/15 09:49:05;;;;;;;11.95;10.80;;;20.90;64.40;;;;;;3968100;29;20164;-51
2023/05/15 09:51:49;;;;;;;10.65;9.63;;;20.90;64.70;;;;;;3967830;29;20111;-53
2023/05/15 09:54:31;;;;;;;10.98;9.95;;;21.00;65.00;;;;;;3967768;29;20065;-54
2023/05/15 09:57:13;;;;;;;11.57;10.38;;;21.00;65.10;;;;;;3968661;29;20179;-51
2023/05/15 09:59:54;;;;;;;11.95;10.55;;;21.00;65.00;;;;;;3958054;29;20058;-53
2023/05/15 10:02:35;;;;;;;11.20;10.10;;;21.00;63.80;;;;;;3968517;29;20072;-50
2023/05/15 10:05:15;;;;;;;12.88;11.60;;;21.10;63.80;;;;;;3968349;29;20143;-51
2023/05/15 10:07:59;;;;;;;12.05;10.80;;;21.10;63.10;;;;;;3957327;29;20057;-53
2023/05/15 10:10:40;;;;;;;12.30;10.82;;;21.10;64.00;;;;;;3968281;29;20053;-49
2023/05/15 10:13:22;;;;;;;12.52;10.77;;;21.10;63.80;;;;;;3940250;29;20106;-51
2023/05/15 10:16:04;;;;;;;11.90;10.70;;;21.10;64.30;;;;;;3970216;29;20127;-51
2023/05/15 10:18:47;;;;;;;12.45;9.90;;;21.10;64.90;;;;;;3971757;29;20081;-52
2023/05/15 10:21:31;;;;;;;11.93;10.65;;;21.20;65.30;;;;;;3970316;29;20065;-53
2023/05/15 10:24:15;;;;;;;11.18;10.18;;;21.20;65.20;;;;;;3971626;29;20352;-53
2023/05/15 10:26:57;;;;;;;10.55;9.55;;;21.20;64.60;;;;;;3971248;29;20057;-53
2023/05/15 10:29:39;;;;;;;10.32;9.27;;;21.20;65.00;;;;;;3971256;29;20077;-52
2023/05/15 10:32:21;;;;;;;10.10;9.20;;;21.20;65.00;;;;;;3970583;29;20062;-53
2023/05/15 10:35:03;;;;;;;12.05;10.05;;;21.20;64.30;;;;;;3971358;29;20474;-52
2023/05/15 10:37:46;;;;;;;10.68;9.68;;;21.30;64.50;;;;;;3971343;29;20050;-53
2023/05/15 10:40:30;;;;;;;10.88;9.82;;;21.30;63.60;;;;;;3960339;29;20091;-49
2023/05/15 10:43:13;;;;;;;11.02;9.95;;;21.30;64.00;;;;;;3970931;29;20054;-49
2023/05/15 10:45:55;;;;;;;10.90;9.93;;;21.30;64.30;;;;;;3970999;29;20555;-54
2023/05/15 10:48:36;;;;;;;10.32;9.35;;;21.30;64.30;;;;;;3969796;29;20065;-52
2023/05/15 10:51:18;;;;;;;;;;;21.30;64.10;;;;;;3970629;29;20057;-52
2023/05/15 10:54:02;;;;;;;9.90;8.90;;;21.40;64.80;;;;;;3969625;29;20032;-51
2023/05/15 10:56:45;;;;;;;10.48;9.43;;;21.40;64.00;;;;;;3970633;29;20411;-49
2023/05/15 10:59:35;;;;;;;11.20;9.75;;;21.30;64.00;;;;;;3969916;29;20111;-52
2023/05/15 11:02:22;;;;;;;10.10;8.13;;;21.40;63.70;;;;;;3970681;29;20224;-53
2023/05/15 11:05:03;;;;;;;9.45;8.52;;;21.40;64.20;;;;;;3970861;29;20058;-49
2023/05/15 11:07:49;;;;;;;10.38;8.73;;;21.40;63.40;;;;;;3948721;29;20081;-55
2023/05/15 11:10:37;;;;;;;9.85;8.57;;;21.40;63.70;;;;;;3970683;29;20054;-54
2023/05/15 11:13:19;;;;;;;8.82;7.85;;;21.40;63.00;;;;;;3970521;29;20110;-51
2023/05/15 11:16:00;;;;;;;8.18;7.38;;;21.40;64.10;;;;;;3970546;29;20114;-52
2023/05/15 11:18:44;;;;;;;8.48;7.78;;;21.40;63.70;;;;;;3970855;29;20080;-50
2023/05/15 11:21:25;;;;;;;7.93;7.32;;;21.40;63.60;;;;;;3971196;29;20070;-49
2023/05/15 11:24:06;;;;;;;11.68;9.38;;;21.40;63.30;;;;;;3969348;29;20061;-51
2023/05/15 11:26:52;;;;;;;9.45;8.65;;;21.40;63.80;;;;;;3968625;29;20191;-51
2023/05/15 11:29:35;;;;;;;9.65;8.75;;;21.40;63.80;;;;;;3970295;29;20077;-52
2023/05/15 11:32:44;;;;;;;11.20;10.13;;;21.40;64.30;;;;;;3959244;29;20239;-52
2023/05/15 11:35:28;;;;;;;10.20;9.30;;;21.40;63.00;;;;;;3969414;29;20651;-50
2023/05/15 11:38:15;;;;;;;10.38;9.30;;;21.40;64.10;;;;;;3970758;29;20173;-49
2023/05/15 11:41:01;;;;;;;10.48;9.52;;;21.40;63.20;;;;;;3970025;29;20192;-50
2023/05/15 11:43:42;;;;;;;9.85;8.95;;;21.40;63.20;;;;;;3970556;29;20058;-48
2023/05/15 11:46:25;;;;;;;9.95;9.10;;;21.40;63.10;;;;;;3968907;29;20073;-51
2023/05/15 11:49:08;;;;;;;9.25;8.45;;;21.40;63.40;;;;;;3970272;29;20517;-48
2023/05/15 11:51:49;;;;;;;9.45;8.65;;;21.40;63.40;;;;;;3970140;29;20107;-48
2023/05/15 11:54:30;;;;;;;8.88;8.00;;;21.40;63.00;;;;;;3970282;29;20057;-52
2023/05/15 11:57:11;;;;;;;9.50;8.60;;;21.40;62.50;;;;;;3969721;29;20415;-51
2023/05/15 11:59:54;;;;;;;10.40;9.38;;;21.40;63.30;;;;;;3969302;29;20096;-51
2023/05/15 12:02:36;;;;;;;10.02;9.02;;;21.40;63.10;;;;;;3969571;29;20061;-50
2023/05/15 12:05:18;;;;;;;10.30;9.30;;;21.40;62.90;;;;;;3970062;29;20061;-50
2023/05/15 12:08:00;;;;;;;9.80;8.88;;;21.40;63.20;;;;;;3970104;29;20059;-51
2023/05/15 12:10:43;;;;;;;9.93;9.02;;;21.40;63.20;;;;;;3969648;29;20518;-52
2023/05/15 12:13:24;;;;;;;9.50;8.55;;;21.40;63.40;;;;;;3969439;29;20509;-53
2023/05/15 12:16:06;;;;;;;9.35;8.48;;;21.40;63.60;;;;;;3970229;29;20049;-52
2023/05/15 12:18:49;;;;;;;8.27;7.47;;;21.40;63.60;;;;;;3970133;29;20053;-52
2023/05/15 12:21:31;;;;;;;9.13;8.32;;;21.40;63.40;;;;;;3969047;29;20057;-49
2023/05/15 12:24:12;;;;;;;7.50;6.90;;;21.40;63.20;;;;;;3947771;29;20065;-55
2023/05/15 12:26:53;;;;;;;8.60;7.90;;;21.40;63.10;;;;;;3967727;29;20061;-55
2023/05/15 12:29:37;;;;;;;7.88;7.00;;;21.50;62.50;;;;;;3968598;29;20054;-47
2023/05/15 12:32:18;;;;;;;8.05;7.22;;;21.40;63.00;;;;;;3969859;29;20064;-47
2023/05/15 12:35:02;;;;;;;8.13;7.43;;;21.40;62.50;;;;;;3969344;29;20139;-50
2023/05/15 12:37:43;;;;;;;9.10;7.10;;;21.40;62.50;;;;;;3968242;29;20184;-51
2023/05/15 12:40:24;;;;;;;7.82;6.75;;;21.40;62.60;;;;;;3969766;29;20081;-58
2023/05/15 12:43:07;;;;;;;8.35;7.65;;;21.40;63.10;;;;;;3969127;29;20464;-58
2023/05/15 12:45:52;;;;;;;8.48;6.85;;;21.40;63.80;;;;;;3969003;29;20054;-58
2023/05/15 12:48:36;;;;;;;8.18;7.45;;;21.40;62.40;;;;;;3969268;29;20057;-58
2023/05/15 12:51:18;;;;;;;7.82;6.35;;;21.40;62.80;;;;;;3969732;29;20074;-58
2023/05/15 12:53:59;;;;;;;7.55;6.82;;;21.40;62.30;;;;;;3970079;29;20524;-58
2023/05/15 12:56:40;;;;;;;11.30;7.60;;;21.40;62.90;;;;;;3969874;29;20164;-58
2023/05/15 12:59:21;;;;;;;8.05;7.35;;;21.30;62.40;;;;;;3956920;29;20154;-58
2023/05/15 13:02:02;;;;;;;6.93;6.40;;;21.30;62.40;;;;;;3969227;29;20049;-56
2023/05/15 13:04:46;;;;;;;7.80;7.20;;;21.30;62.60;;;;;;3969656;29;20085;-56
2023/05/15 13:07:29;;;;;;;8.25;7.53;;;21.30;62.60;;;;;;3969526;29;20058;-57
2023/05/15 13:10:12;;;;;;;7.03;6.43;;;21.30;62.20;;;;;;3968434;29;20062;-56
2023/05/15 13:12:55;;;;;;;6.88;6.28;;;21.30;61.70;;;;;;3967015;29;21103;-57
2023/05/15 13:15:39;;;;;;;6.95;6.35;;;21.30;61.90;;;;;;3969331;29;20057;-59
2023/05/15 13:18:20;;;;;;;5.95;5.45;;;21.30;62.00;;;;;;3967658;29;20131;-56
2023/05/15 13:21:01;;;;;;;6.70;6.10;;;21.30;62.10;;;;;;3969397;29;20411;-59
2023/05/15 13:23:43;;;;;;;6.50;5.95;;;21.30;62.50;;;;;;3969236;29;20058;-56
2023/05/15 13:26:24;;;;;;;6.47;5.97;;;21.30;63.50;;;;;;3968204;29;20207;-57
2023/05/15 13:29:06;;;;;;;6.65;6.05;;;21.30;62.30;;;;;;3968652;29;20062;-58
2023/05/15 13:31:51;;;;;;;6.80;6.20;;;21.30;62.80;;;;;;3966829;29;20485;-58
2023/05/15 13:34:34;;;;;;;6.22;5.72;;;21.30;62.80;;;;;;3958155;29;20062;-56
2023/05/15 13:37:16;;;;;;;7.45;6.85;;;21.30;61.90;;;;;;3969418;29;20061;-55
2023/05/15 13:39:58;;;;;;;7.05;6.47;;;21.30;63.30;;;;;;3969339;29;20062;-56
2023/05/15 13:42:41;;;;;;;7.40;6.72;;;21.30;62.40;;;;;;3968525;29;20046;-57
2023/05/15 13:45:22;;;;;;;7.10;6.57;;;21.30;61.90;;;;;;3968774;29;20644;-56
2023/05/15 13:48:03;;;;;;;6.20;5.70;;;21.30;61.90;;;;;;3969024;29;20054;-56
2023/05/15 13:50:45;;;;;;;6.90;6.40;;;21.30;61.90;;;;;;3967802;29;20066;-57
2023/05/15 13:53:26;;;;;;;7.22;6.68;;;21.30;62.00;;;;;;3969131;29;20062;-54